createdAt,value
2023-07-18T00:01:21.642Z,16.00
2023-07-18T00:03:54.530Z,16.00
2023-07-18T00:06:26.844Z,16.00
2023-07-18T00:09:01.878Z,15.90
2023-07-18T00:11:37.733Z,15.80
2023-07-18T00:14:14.506Z,15.70
2023-07-18T00:16:47.624Z,15.70
2023-07-18T00:19:18.556Z,15.50
2023-07-18T00:21:51.364Z,15.40
2023-07-18T00:24:30.271Z,15.30
2023-07-18T00:27:05.346Z,15.10
2023-07-18T00:29:37.980Z,15.00
2023-07-18T00:32:09.248Z,14.90
2023-07-18T00:34:45.661Z,14.80
2023-07-18T00:37:21.263Z,14.70
2023-07-18T00:39:55.942Z,14.50
2023-07-18T00:42:24.007Z,14.50
2023-07-18T00:44:57.418Z,14.40
2023-07-18T00:47:28.013Z,14.30
2023-07-18T00:49:59.526Z,14.20
2023-07-18T00:52:32.372Z,14.10
2023-07-18T00:55:04.774Z,14.10
2023-07-18T00:57:45.984Z,14.00
2023-07-18T01:00:15.846Z,13.90
2023-07-18T01:02:47.797Z,13.90
2023-07-18T01:05:23.518Z,13.80
2023-07-18T01:07:54.023Z,13.80
2023-07-18T01:10:28.313Z,13.70
2023-07-18T01:12:59.713Z,13.60
2023-07-18T01:15:31.118Z,13.50
2023-07-18T01:18:07.445Z,13.50
2023-07-18T01:20:37.999Z,13.40
2023-07-18T01:23:11.534Z,13.40
2023-07-18T01:25:41.191Z,13.30
2023-07-18T01:28:13.918Z,13.30
2023-07-18T01:30:44.215Z,13.20
2023-07-18T01:33:17.556Z,13.20
2023-07-18T01:35:48.029Z,13.10
2023-07-18T01:38:30.805Z,13.10
2023-07-18T01:41:08.406Z,13.10
2023-07-18T01:43:38.110Z,13.10
2023-07-18T01:46:08.652Z,13.00
2023-07-18T01:48:41.885Z,13.00
2023-07-18T01:51:14.861Z,12.90
2023-07-18T01:53:44.907Z,12.90
2023-07-18T01:56:18.030Z,12.80
2023-07-18T01:58:48.846Z,12.80
2023-07-18T02:01:21.628Z,12.70
2023-07-18T02:03:52.963Z,12.70
2023-07-18T02:06:26.220Z,12.70
2023-07-18T02:08:56.283Z,12.70
2023-07-18T02:11:29.027Z,12.60
2023-07-18T02:13:56.476Z,12.60
2023-07-18T02:16:26.798Z,12.60
2023-07-18T02:19:00.009Z,12.60
2023-07-18T02:21:30.154Z,12.50
2023-07-18T02:24:00.034Z,12.50
2023-07-18T02:26:33.000Z,12.50
2023-07-18T02:29:06.155Z,12.50
2023-07-18T02:31:34.336Z,12.50
2023-07-18T02:34:06.109Z,12.50
2023-07-18T02:36:33.913Z,12.40
2023-07-18T02:39:07.514Z,12.40
2023-07-18T02:41:40.332Z,12.30
2023-07-18T02:44:11.942Z,12.30
2023-07-18T02:46:44.138Z,12.20
2023-07-18T02:49:13.668Z,12.20
2023-07-18T02:51:46.457Z,12.20
2023-07-18T02:54:22.323Z,12.20
2023-07-18T02:56:55.085Z,12.20
2023-07-18T02:59:25.603Z,12.20
2023-07-18T03:01:58.491Z,12.20
2023-07-18T03:04:28.002Z,12.20
2023-07-18T03:07:02.283Z,12.10
2023-07-18T03:09:35.689Z,12.20
2023-07-18T03:12:08.458Z,12.30
2023-07-18T03:14:45.110Z,12.30
2023-07-18T03:17:14.870Z,12.30
2023-07-18T03:19:50.637Z,12.30
2023-07-18T03:22:20.994Z,12.30
2023-07-18T03:24:50.954Z,12.30
2023-07-18T03:27:20.700Z,12.20
2023-07-18T03:29:50.607Z,12.20
2023-07-18T03:32:24.485Z,12.20
2023-07-18T03:34:57.697Z,12.20
2023-07-18T03:37:29.753Z,12.30
2023-07-18T03:40:02.422Z,12.40
2023-07-18T03:42:32.707Z,12.40
2023-07-18T03:45:04.223Z,12.50
2023-07-18T03:47:33.954Z,12.60
2023-07-18T03:50:04.025Z,12.60
2023-07-18T03:52:37.112Z,12.60
2023-07-18T03:55:11.350Z,12.60
2023-07-18T03:57:41.849Z,12.70
2023-07-18T04:00:15.641Z,12.70
2023-07-18T04:02:47.347Z,12.70
2023-07-18T04:05:18.704Z,12.70
2023-07-18T04:07:49.494Z,12.80
2023-07-18T04:10:17.133Z,12.80
2023-07-18T04:12:47.583Z,12.90
2023-07-18T04:15:17.666Z,13.00
2023-07-18T04:17:54.015Z,13.20
2023-07-18T04:20:23.149Z,13.30
2023-07-18T04:22:53.333Z,13.50
2023-07-18T04:25:23.634Z,13.70
2023-07-18T04:27:53.414Z,13.80
2023-07-18T04:30:24.038Z,13.90
2023-07-18T04:32:54.526Z,14.00
2023-07-18T04:35:24.389Z,14.00
2023-07-18T04:37:56.565Z,14.10
2023-07-18T04:40:25.064Z,14.30
2023-07-18T04:42:54.686Z,14.60
2023-07-18T04:45:27.095Z,14.70
2023-07-18T04:48:00.327Z,14.90
2023-07-18T04:50:30.557Z,15.10
2023-07-18T04:53:03.146Z,15.40
2023-07-18T04:55:36.021Z,15.70
2023-07-18T04:58:11.232Z,16.20
2023-07-18T05:00:42.913Z,16.50
2023-07-18T05:03:13.355Z,16.70
2023-07-18T05:05:46.109Z,16.80
2023-07-18T05:08:18.011Z,16.80
2023-07-18T05:10:47.916Z,16.60
2023-07-18T05:13:18.228Z,16.40
2023-07-18T05:15:46.300Z,16.30
2023-07-18T05:18:13.784Z,16.30
2023-07-18T05:20:45.965Z,16.40
2023-07-18T05:23:15.970Z,16.50
2023-07-18T05:25:46.143Z,16.60
2023-07-18T05:28:17.970Z,16.70
2023-07-18T05:30:49.242Z,17.00
2023-07-18T05:33:23.379Z,17.10
2023-07-18T05:35:50.753Z,17.40
2023-07-18T05:38:20.458Z,17.60
2023-07-18T05:40:50.235Z,17.80
2023-07-18T05:43:22.531Z,18.00
2023-07-18T05:45:53.130Z,18.10
2023-07-18T05:48:20.577Z,18.30
2023-07-18T05:50:47.991Z,18.70
2023-07-18T05:53:15.454Z,19.00
2023-07-18T05:55:42.838Z,19.20
2023-07-18T05:58:11.023Z,19.40
2023-07-18T06:00:38.468Z,19.80
2023-07-18T06:03:29.707Z,20.40
2023-07-18T06:05:57.282Z,21.40
2023-07-18T06:08:24.679Z,21.70
2023-07-18T06:10:57.921Z,21.30
2023-07-18T06:13:26.154Z,21.10
2023-07-18T06:15:54.160Z,21.20
2023-07-18T06:18:21.930Z,21.20
2023-07-18T06:20:49.686Z,21.40
2023-07-18T06:23:17.364Z,21.40
2023-07-18T06:25:44.923Z,21.80
2023-07-18T06:28:12.409Z,22.60
2023-07-18T06:30:39.967Z,23.60
2023-07-18T06:33:07.549Z,24.20
2023-07-18T06:35:35.102Z,25.00
2023-07-18T06:38:02.465Z,24.90
2023-07-18T06:40:30.222Z,24.80
2023-07-18T06:42:58.481Z,24.10
2023-07-18T06:45:25.979Z,23.70
2023-07-18T06:47:53.725Z,23.20
2023-07-18T06:50:21.112Z,23.10
2023-07-18T06:52:48.859Z,23.30
2023-07-18T06:55:17.439Z,24.10
2023-07-18T06:57:45.209Z,24.60
2023-07-18T07:00:13.937Z,24.70
2023-07-18T07:02:41.673Z,25.00
2023-07-18T07:05:10.206Z,25.20
2023-07-18T07:07:38.565Z,25.50
2023-07-18T07:10:09.872Z,26.30
2023-07-18T07:12:38.017Z,25.60
2023-07-18T07:15:06.225Z,26.10
2023-07-18T07:17:33.702Z,26.90
2023-07-18T07:20:01.964Z,27.10
2023-07-18T07:22:29.428Z,27.50
2023-07-18T07:24:57.529Z,28.30
2023-07-18T07:27:24.922Z,28.70
2023-07-18T07:29:53.340Z,28.20
2023-07-18T07:32:20.902Z,28.50
2023-07-18T07:34:48.359Z,29.20
2023-07-18T07:37:15.775Z,28.90
2023-07-18T07:39:44.530Z,28.50
2023-07-18T07:42:11.961Z,28.00
2023-07-18T07:44:39.339Z,27.50
2023-07-18T07:47:06.985Z,27.90
2023-07-18T07:49:34.375Z,28.00
2023-07-18T07:52:01.747Z,29.00
2023-07-18T07:54:29.839Z,30.00
2023-07-18T07:56:57.236Z,30.00
2023-07-18T07:59:24.602Z,29.80
2023-07-18T08:01:53.749Z,30.10
2023-07-18T08:04:21.478Z,30.30
2023-07-18T08:06:48.940Z,30.40
2023-07-18T08:09:16.343Z,30.30
2023-07-18T08:11:44.261Z,30.10
2023-07-18T08:14:11.597Z,29.80
2023-07-18T08:16:39.175Z,29.50
2023-07-18T08:19:06.589Z,29.50
2023-07-18T08:21:33.989Z,29.70
2023-07-18T08:24:01.982Z,29.30
2023-07-18T08:26:29.377Z,28.60
2023-07-18T08:28:56.725Z,29.20
2023-07-18T08:31:24.277Z,29.40
2023-07-18T08:33:51.898Z,29.00
2023-07-18T08:36:19.401Z,28.70
2023-07-18T08:38:51.272Z,28.90
2023-07-18T08:41:21.380Z,28.80
2023-07-18T08:43:50.035Z,29.20
2023-07-18T08:46:18.144Z,29.40
2023-07-18T08:48:46.847Z,29.00
2023-07-18T08:51:15.387Z,29.40
2023-07-18T08:53:43.186Z,29.20
2023-07-18T08:56:11.102Z,29.20
2023-07-18T08:58:39.491Z,29.10
2023-07-18T09:01:10.612Z,29.00
2023-07-18T09:03:38.135Z,29.10
2023-07-18T09:06:19.386Z,29.20
2023-07-18T09:08:47.806Z,29.40
2023-07-18T09:11:19.586Z,29.50
2023-07-18T09:13:48.229Z,29.50
2023-07-18T09:16:21.982Z,28.90
2023-07-18T09:18:54.388Z,28.80
2023-07-18T09:21:23.574Z,28.20
2023-07-18T09:23:52.124Z,28.20
2023-07-18T09:26:21.448Z,28.50
2023-07-18T09:28:49.524Z,28.40
2023-07-18T09:31:22.003Z,28.30
2023-07-18T09:33:51.612Z,27.80
2023-07-18T09:36:22.739Z,28.00
2023-07-18T09:38:51.102Z,28.00
2023-07-18T09:41:21.660Z,27.90
2023-07-18T09:43:50.148Z,28.00
2023-07-18T09:46:18.496Z,27.80
2023-07-18T09:48:49.354Z,27.10
2023-07-18T09:51:23.922Z,26.50
2023-07-18T09:53:52.693Z,26.40
2023-07-18T09:56:21.062Z,26.40
2023-07-18T09:58:48.712Z,26.40
2023-07-18T10:01:21.748Z,26.20
2023-07-18T10:03:51.234Z,26.40
2023-07-18T10:06:19.031Z,27.00
2023-07-18T10:08:47.363Z,27.50
2023-07-18T10:11:15.723Z,27.60
2023-07-18T10:14:05.804Z,27.40
2023-07-18T10:16:37.124Z,26.60
2023-07-18T10:19:23.857Z,26.40
2023-07-18T10:21:57.876Z,26.60
2023-07-18T10:24:27.782Z,26.80
2023-07-18T10:27:00.033Z,26.40
2023-07-18T10:29:38.580Z,26.20
2023-07-18T10:32:10.375Z,26.20
2023-07-18T10:34:42.513Z,26.40
2023-07-18T10:37:10.068Z,26.80
2023-07-18T10:39:40.395Z,26.80
2023-07-18T10:42:20.858Z,26.50
2023-07-18T10:44:49.511Z,26.90
2023-07-18T10:47:19.856Z,27.10
2023-07-18T10:49:50.461Z,27.30
2023-07-18T10:52:19.379Z,27.50
2023-07-18T10:54:52.555Z,28.10
2023-07-18T10:57:37.315Z,28.50
2023-07-18T11:00:07.223Z,28.40
2023-07-18T11:02:42.850Z,27.70
2023-07-18T11:05:13.410Z,27.50
2023-07-18T11:07:42.557Z,27.70
2023-07-18T11:10:12.109Z,27.00
2023-07-18T11:12:40.370Z,26.00
2023-07-18T11:15:09.246Z,25.70
2023-07-18T11:17:37.200Z,25.80
2023-07-18T11:20:05.424Z,25.80
2023-07-18T11:22:35.337Z,25.80
2023-07-18T11:25:03.213Z,25.80
2023-07-18T11:27:32.699Z,26.30
2023-07-18T11:30:01.324Z,26.50
2023-07-18T11:32:47.925Z,26.90
2023-07-18T11:35:23.599Z,27.00
2023-07-18T11:37:55.212Z,27.30
2023-07-18T11:40:24.491Z,27.30
2023-07-18T11:42:54.526Z,27.60
2023-07-18T11:45:24.222Z,27.70
2023-07-18T11:47:56.222Z,27.90
2023-07-18T11:52:59.745Z,28.00
2023-07-18T11:55:27.450Z,28.50
2023-07-18T11:57:55.461Z,29.10
2023-07-18T12:00:23.364Z,29.70
2023-07-18T12:02:50.894Z,29.50
2023-07-18T12:05:18.589Z,29.20
2023-07-18T12:07:46.957Z,28.90
2023-07-18T12:10:16.705Z,29.10
2023-07-18T12:12:44.625Z,29.30
2023-07-18T12:15:13.765Z,29.20
2023-07-18T12:17:42.046Z,28.90
2023-07-18T12:20:10.465Z,28.70
2023-07-18T12:22:38.889Z,28.70
2023-07-18T12:25:07.122Z,28.80
2023-07-18T12:27:34.809Z,29.00
2023-07-18T12:32:32.401Z,28.50
2023-07-18T12:35:00.216Z,28.30
2023-07-18T12:37:27.814Z,28.20
2023-07-18T12:39:55.461Z,28.10
2023-07-18T12:42:23.199Z,28.30
2023-07-18T12:44:52.976Z,28.30
2023-07-18T12:47:20.558Z,28.50
2023-07-18T12:52:18.521Z,28.00
2023-07-18T12:54:46.550Z,27.90
2023-07-18T12:57:14.088Z,27.90
2023-07-18T12:59:41.576Z,28.20
2023-07-18T13:02:11.451Z,28.70
2023-07-18T13:04:39.113Z,29.10
2023-07-18T13:07:07.339Z,29.80
2023-07-18T13:09:35.058Z,30.10
2023-07-18T13:12:02.537Z,30.30
2023-07-18T13:14:30.080Z,29.90
2023-07-18T13:16:57.902Z,29.00
2023-07-18T13:19:25.502Z,28.60
2023-07-18T13:21:53.084Z,28.30
2023-07-18T13:24:20.813Z,27.90
2023-07-18T13:26:48.234Z,28.00
2023-07-18T13:29:15.704Z,28.00
2023-07-18T13:31:43.177Z,28.10
2023-07-18T13:34:12.639Z,27.70
2023-07-18T13:36:41.647Z,27.80
2023-07-18T13:39:08.973Z,28.20
2023-07-18T13:41:36.365Z,27.90
2023-07-18T13:44:04.701Z,27.90
2023-07-18T13:46:32.332Z,27.70
2023-07-18T13:48:59.932Z,27.30
2023-07-18T13:51:27.440Z,27.30
2023-07-18T13:53:54.802Z,27.30
2023-07-18T13:56:22.487Z,27.60
2023-07-18T13:58:50.356Z,28.00
2023-07-18T14:01:19.799Z,28.40
2023-07-18T14:03:47.837Z,28.40
2023-07-18T14:06:15.264Z,28.40
2023-07-18T14:08:43.826Z,28.30
2023-07-18T14:11:11.244Z,28.30
2023-07-18T14:13:43.120Z,27.90
2023-07-18T14:16:11.013Z,28.00
2023-07-18T14:18:38.502Z,28.10
2023-07-18T14:21:06.090Z,28.50
2023-07-18T14:23:33.683Z,28.90
2023-07-18T14:26:01.157Z,29.00
2023-07-18T14:28:31.512Z,29.10
2023-07-18T14:31:01.811Z,28.40
2023-07-18T14:33:30.901Z,28.10
2023-07-18T14:35:58.416Z,28.60
2023-07-18T14:38:28.339Z,28.40
2023-07-18T14:40:56.015Z,28.10
2023-07-18T14:43:31.806Z,27.70
2023-07-18T14:46:00.169Z,27.60
2023-07-18T14:48:30.015Z,28.10
2023-07-18T14:51:00.506Z,28.80
2023-07-18T14:53:27.949Z,29.60
2023-07-18T14:55:55.409Z,29.90
2023-07-18T14:58:23.263Z,29.50
2023-07-18T15:00:52.117Z,28.80
2023-07-18T15:03:21.463Z,28.90
2023-07-18T15:05:49.048Z,28.90
2023-07-18T15:08:19.399Z,28.80
2023-07-18T15:10:46.877Z,28.90
2023-07-18T15:13:17.486Z,28.70
2023-07-18T15:15:47.815Z,28.50
2023-07-18T15:18:19.620Z,28.00
2023-07-18T15:20:47.248Z,27.70
2023-07-18T15:23:20.221Z,27.70
2023-07-18T15:25:50.728Z,28.00
2023-07-18T15:28:18.827Z,28.40
2023-07-18T15:30:46.350Z,28.70
2023-07-18T15:33:26.633Z,29.00
2023-07-18T15:35:55.254Z,28.90
2023-07-18T15:38:22.899Z,28.70
2023-07-18T15:40:50.389Z,29.00
2023-07-18T15:43:20.954Z,29.10
2023-07-18T15:45:51.541Z,28.70
2023-07-18T15:48:19.334Z,28.50
2023-07-18T15:50:46.867Z,28.50
2023-07-18T15:53:15.155Z,28.10
2023-07-18T15:55:42.754Z,27.80
2023-07-18T15:58:11.085Z,27.90
2023-07-18T16:00:38.604Z,28.00
2023-07-18T16:03:06.171Z,28.10
2023-07-18T16:05:33.809Z,28.10
2023-07-18T16:08:03.426Z,28.30
2023-07-18T16:10:33.477Z,28.40
2023-07-18T16:13:00.936Z,28.50
2023-07-18T16:15:32.570Z,28.60
2023-07-18T16:18:04.378Z,28.40
2023-07-18T16:20:33.011Z,28.10
2023-07-18T16:23:00.900Z,28.10
2023-07-18T16:25:28.370Z,28.20
2023-07-18T16:27:56.426Z,28.50
2023-07-18T16:30:27.069Z,28.60
2023-07-18T16:32:55.566Z,28.40
2023-07-18T16:35:23.188Z,27.70
2023-07-18T16:37:50.825Z,26.90
2023-07-18T16:40:21.417Z,26.40
2023-07-18T16:42:49.212Z,26.20
2023-07-18T16:45:19.686Z,26.00
2023-07-18T16:47:52.769Z,25.80
2023-07-18T16:50:20.390Z,25.70
2023-07-18T16:52:48.267Z,25.60
2023-07-18T16:55:15.818Z,25.60
2023-07-18T16:57:48.545Z,25.50
2023-07-18T17:00:17.707Z,25.50
2023-07-18T17:02:45.243Z,25.40
2023-07-18T17:05:15.608Z,25.40
2023-07-18T17:07:43.230Z,25.40
2023-07-18T17:10:15.739Z,25.50
2023-07-18T17:12:44.120Z,25.50
2023-07-18T17:15:12.253Z,25.40
2023-07-18T17:17:40.169Z,25.30
2023-07-18T17:20:14.127Z,25.30
2023-07-18T17:22:45.036Z,25.30
2023-07-18T17:25:12.546Z,25.20
2023-07-18T17:27:42.280Z,25.20
2023-07-18T17:30:12.811Z,25.10
2023-07-18T17:32:43.162Z,25.00
2023-07-18T17:35:12.905Z,25.00
2023-07-18T17:37:42.654Z,25.00
2023-07-18T17:40:14.377Z,24.90
2023-07-18T17:42:44.026Z,24.80
2023-07-18T17:45:13.624Z,24.70
2023-07-18T17:47:48.321Z,24.70
2023-07-18T17:50:18.248Z,24.70
2023-07-18T17:52:45.790Z,24.50
2023-07-18T17:55:13.340Z,24.50
2023-07-18T17:57:40.936Z,24.40
2023-07-18T18:00:10.118Z,24.30
2023-07-18T18:02:40.152Z,24.30
2023-07-18T18:05:34.121Z,24.20
2023-07-18T18:08:02.667Z,24.20
2023-07-18T18:10:33.353Z,24.20
2023-07-18T18:13:01.312Z,24.10
2023-07-18T18:15:32.246Z,24.00
2023-07-18T18:18:00.376Z,24.00
2023-07-18T18:20:27.936Z,23.90
2023-07-18T18:23:00.798Z,23.80
2023-07-18T18:25:31.607Z,23.60
2023-07-18T18:28:00.173Z,23.40
2023-07-18T18:30:27.833Z,23.20
2023-07-18T18:32:55.417Z,23.00
2023-07-18T18:35:23.150Z,22.90
2023-07-18T18:37:50.726Z,22.70
2023-07-18T18:40:21.006Z,22.50
2023-07-18T18:42:48.556Z,22.30
2023-07-18T18:45:19.140Z,22.10
2023-07-18T18:47:49.819Z,21.90
2023-07-18T18:50:18.362Z,21.70
2023-07-18T18:52:46.269Z,21.50
2023-07-18T18:55:19.902Z,21.30
2023-07-18T18:57:50.806Z,21.00
2023-07-18T19:00:18.872Z,20.80
2023-07-18T19:02:46.430Z,20.70
2023-07-18T19:05:13.933Z,20.60
2023-07-18T19:07:42.285Z,20.50
2023-07-18T19:10:14.746Z,20.40
2023-07-18T19:12:42.271Z,20.50
2023-07-18T19:15:12.542Z,20.50
2023-07-18T19:17:40.501Z,20.40
2023-07-18T19:20:10.332Z,20.30
2023-07-18T19:22:40.874Z,20.20
2023-07-18T19:25:11.233Z,20.00
2023-07-18T19:27:39.165Z,19.90
2023-07-18T19:30:07.432Z,19.70
2023-07-18T19:32:34.995Z,19.60
2023-07-18T19:35:04.057Z,19.50
2023-07-18T19:37:31.863Z,19.40
2023-07-18T19:40:05.297Z,19.40
2023-07-18T19:42:35.634Z,19.40
2023-07-18T19:45:03.219Z,19.40
2023-07-18T19:47:32.968Z,19.60
2023-07-18T19:50:00.764Z,19.60
2023-07-18T19:52:28.233Z,19.50
2023-07-18T19:55:01.031Z,19.40
2023-07-18T19:57:31.345Z,19.20
2023-07-18T20:00:01.595Z,19.20
2023-07-18T20:02:29.168Z,19.10
2023-07-18T20:04:56.746Z,19.10
2023-07-18T20:07:24.202Z,19.00
2023-07-18T20:09:53.943Z,18.90
2023-07-18T20:12:26.118Z,18.90
2023-07-18T20:14:56.490Z,18.90
2023-07-18T20:17:27.042Z,18.80
2023-07-18T20:19:54.615Z,18.80
2023-07-18T20:22:24.144Z,18.80
2023-07-18T20:24:51.879Z,18.80
2023-07-18T20:27:19.739Z,18.80
2023-07-18T20:29:47.306Z,18.70
2023-07-18T20:32:14.823Z,18.60
2023-07-18T20:34:44.382Z,18.50
2023-07-18T20:37:12.069Z,18.40
2023-07-18T20:39:40.045Z,18.30
2023-07-18T20:42:13.414Z,18.20
2023-07-18T20:44:45.369Z,18.10
2023-07-18T20:47:12.829Z,17.90
2023-07-18T20:49:40.278Z,17.90
2023-07-18T20:52:08.076Z,17.80
2023-07-18T20:54:38.186Z,17.70
2023-07-18T20:57:08.638Z,17.90
2023-07-18T20:59:41.639Z,17.80
2023-07-18T21:02:09.274Z,17.70
2023-07-18T21:04:36.695Z,17.50
2023-07-18T21:07:04.915Z,17.50
2023-07-18T21:09:32.609Z,17.30
2023-07-18T21:12:03.293Z,17.20
2023-07-18T21:14:30.830Z,17.20
2023-07-18T21:17:02.275Z,17.10
2023-07-18T21:19:32.824Z,17.00
2023-07-18T21:22:05.832Z,17.00
2023-07-18T21:24:36.141Z,16.90
2023-07-18T21:27:06.637Z,16.80
2023-07-18T21:29:39.684Z,16.60
2023-07-18T21:32:10.571Z,16.60
2023-07-18T21:34:38.461Z,16.60
2023-07-18T21:37:12.636Z,16.60
2023-07-18T21:39:43.243Z,16.70
2023-07-18T21:42:14.304Z,16.80
2023-07-18T21:44:44.546Z,16.90
2023-07-18T21:47:12.337Z,16.80
2023-07-18T21:49:43.394Z,16.70
2023-07-18T21:52:14.064Z,16.70
2023-07-18T21:54:41.462Z,16.60
2023-07-18T21:57:17.235Z,16.50
2023-07-18T21:59:47.588Z,16.40
2023-07-18T22:02:36.284Z,16.30
2023-07-18T22:05:07.146Z,16.30
2023-07-18T22:07:34.790Z,16.20
2023-07-18T22:10:03.290Z,16.20
2023-07-18T22:12:31.025Z,16.10
2023-07-18T22:14:58.511Z,16.10
2023-07-18T22:17:26.122Z,16.10
2023-07-18T22:19:53.707Z,16.10
2023-07-18T22:22:21.128Z,16.00
2023-07-18T22:24:53.912Z,16.00
2023-07-18T22:27:25.939Z,16.00
2023-07-18T22:29:56.397Z,15.90
2023-07-18T22:32:23.759Z,15.90
2023-07-18T22:34:51.634Z,15.70
2023-07-18T22:37:21.399Z,15.60
2023-07-18T22:39:49.651Z,15.50
2023-07-18T22:42:22.018Z,15.40
2023-07-18T22:44:50.329Z,15.40
2023-07-18T22:47:20.388Z,15.30
2023-07-18T22:49:51.088Z,15.20
2023-07-18T22:52:19.498Z,15.10
2023-07-18T22:54:51.299Z,15.00
2023-07-18T22:57:23.294Z,15.00
2023-07-18T22:59:53.835Z,14.90
2023-07-18T23:02:24.775Z,14.80
2023-07-18T23:04:55.374Z,14.80
2023-07-18T23:07:25.141Z,14.80
2023-07-18T23:09:55.657Z,14.80
2023-07-18T23:12:26.057Z,14.80
2023-07-18T23:14:59.004Z,14.70
2023-07-18T23:17:29.404Z,14.70
2023-07-18T23:20:17.382Z,14.70
2023-07-18T23:22:47.378Z,14.70
2023-07-18T23:25:20.461Z,14.70
2023-07-18T23:27:50.868Z,14.70
2023-07-18T23:30:21.404Z,14.60
2023-07-18T23:32:51.743Z,14.50
2023-07-18T23:35:25.888Z,14.50
2023-07-18T23:37:57.191Z,14.50
2023-07-18T23:40:24.738Z,14.40
2023-07-18T23:42:55.029Z,14.30
2023-07-18T23:45:28.603Z,14.20
2023-07-18T23:47:59.578Z,14.20
2023-07-18T23:50:33.308Z,14.10
2023-07-18T23:53:04.338Z,14.00
2023-07-18T23:55:34.513Z,14.00
2023-07-18T23:58:07.513Z,13.90
